TRO weather

Taree Airport
Taree, New South Wales, Australia

Public forecast

Using degrees Celsius for public forecast. Weather courtesy of forecast.io.

Current aviation weather report (METAR) for Taree Airport

Retrieved 2019/10/16 09:30 UTC (12 minutes ago):

YTRE 160930Z AUTO 22015KT 8000 +SHRA SCT012 SCT071 OVC110 19/18 Q1012

Aviation forecast (TAF) for Taree Airport

Forecast is more than 6 hours old.

Retrieved 2019-10-16 02:33 UTC (7 hours ago):

TAF YTRE 160106Z 1602/1614 10010KT CAVOK FM160800 14005KT 9999 -SHRA FEW010 FM161000 22006KT 9999 -SHRA BKN005 PROB30 1611/1614 0500 FG BKN002